createdAt,value
2022-11-01T00:03:46.360Z,97074.78
2022-11-01T00:08:39.620Z,97073.47
2022-11-01T00:13:34.777Z,97078.94
2022-11-01T00:18:28.682Z,97074.66
2022-11-01T00:23:22.684Z,97080.75
2022-11-01T00:28:16.224Z,97080.03
2022-11-01T00:33:10.855Z,97089.44
2022-11-01T00:38:05.091Z,97078.22
2022-11-01T00:42:58.394Z,97074.03
2022-11-01T00:47:51.739Z,97077.00
2022-11-01T00:52:46.358Z,97078.94
2022-11-01T00:57:39.681Z,97084.66
2022-11-01T01:02:33.298Z,97087.78
2022-11-01T01:07:26.601Z,97082.16
2022-11-01T01:12:21.366Z,97083.47
2022-11-01T01:17:14.861Z,97077.88
2022-11-01T01:22:08.169Z,97087.63
2022-11-01T01:27:01.668Z,97077.28
2022-11-01T01:31:56.421Z,97096.34
2022-11-01T01:36:49.738Z,97099.56
2022-11-01T01:41:58.144Z,97089.56
2022-11-01T01:46:51.401Z,97094.88
2022-11-01T01:51:46.413Z,97085.69
2022-11-01T01:56:39.789Z,97087.75
2022-11-01T02:01:35.305Z,97089.41
2022-11-01T02:06:29.255Z,97099.25
2022-11-01T02:11:24.230Z,97092.97
2022-11-01T02:16:45.301Z,97078.78
2022-11-01T02:21:59.635Z,97085.13
2022-11-01T02:27:14.135Z,97079.97
2022-11-01T02:32:21.163Z,97082.25
2022-11-01T02:37:23.916Z,97078.44
2022-11-01T02:42:26.776Z,97068.19
2022-11-01T02:47:22.037Z,97063.88
2022-11-01T02:52:23.441Z,97066.28
2022-11-01T02:57:31.921Z,97075.59
2022-11-01T03:02:40.391Z,97085.22
2022-11-01T03:07:34.150Z,97086.66
2022-11-01T03:12:34.052Z,97102.75
2022-11-01T03:17:40.479Z,97117.75
2022-11-01T03:22:43.914Z,97122.63
2022-11-01T03:27:42.410Z,97127.75
2022-11-01T03:32:44.725Z,97141.00
2022-11-01T03:37:45.251Z,97149.00
2022-11-01T03:42:41.670Z,97164.63
2022-11-01T03:47:36.661Z,97158.06
2022-11-01T03:52:29.939Z,97167.63
2022-11-01T03:57:23.775Z,97168.19
2022-11-01T04:02:17.004Z,97180.91
2022-11-01T04:07:11.631Z,97179.94
2022-11-01T04:12:05.091Z,97169.69
2022-11-01T04:17:15.520Z,97176.19
2022-11-01T04:22:08.796Z,97195.88
2022-11-01T04:27:03.434Z,97197.44
2022-11-01T04:31:56.763Z,97205.22
2022-11-01T04:36:50.016Z,97209.22
2022-11-01T04:41:43.315Z,97206.38
2022-11-01T04:46:38.054Z,97203.03
2022-11-01T04:51:31.337Z,97207.09
2022-11-01T04:56:24.697Z,97216.88
2022-11-01T05:01:18.008Z,97229.91
2022-11-01T05:06:12.785Z,97229.69
2022-11-01T05:11:06.366Z,97234.47
2022-11-01T05:16:18.417Z,97249.38
2022-11-01T05:21:13.912Z,97246.84
2022-11-01T05:26:07.393Z,97247.22
2022-11-01T05:31:00.710Z,97258.91
2022-11-01T05:35:53.945Z,97276.16
2022-11-01T05:40:48.745Z,97290.84
2022-11-01T05:45:42.601Z,97283.75
2022-11-01T05:50:35.864Z,97285.97
2022-11-01T05:55:29.148Z,97300.66
2022-11-01T06:00:23.811Z,97302.78
2022-11-01T06:05:17.235Z,97310.16
2022-11-01T06:10:10.994Z,97303.75
2022-11-01T06:15:04.477Z,97313.78
2022-11-01T06:19:59.161Z,97320.16
2022-11-01T06:24:52.684Z,97319.38
2022-11-01T06:29:45.978Z,97323.19
2022-11-01T06:34:42.340Z,97331.38
2022-11-01T06:39:39.550Z,97340.03
2022-11-01T06:44:32.935Z,97342.97
2022-11-01T06:49:26.231Z,97346.59
2022-11-01T06:54:19.528Z,97345.19
2022-11-01T06:59:14.845Z,97350.31
2022-11-01T07:04:08.211Z,97364.97
2022-11-01T07:09:01.933Z,97356.78
2022-11-01T07:13:55.307Z,97358.31
2022-11-01T07:18:50.021Z,97363.13
2022-11-01T07:23:43.270Z,97359.25
2022-11-01T07:28:36.553Z,97363.94
2022-11-01T07:33:29.862Z,97362.03
2022-11-01T07:38:24.615Z,97359.69
2022-11-01T07:43:19.046Z,97361.03
2022-11-01T07:48:15.117Z,97372.75
2022-11-01T07:53:11.411Z,97374.06
2022-11-01T07:58:07.089Z,97377.41
2022-11-01T08:03:04.438Z,97380.78
2022-11-01T08:07:57.959Z,97383.66
2022-11-01T08:12:51.304Z,97379.16
2022-11-01T08:17:45.942Z,97367.66
2022-11-01T08:22:41.132Z,97366.22
2022-11-01T08:27:35.462Z,97364.59
2022-11-01T08:32:28.921Z,97353.16
2022-11-01T08:37:23.745Z,97361.03
2022-11-01T08:42:17.066Z,97346.78
2022-11-01T08:47:11.480Z,97356.38
2022-11-01T08:52:05.937Z,97371.78
2022-11-01T08:57:02.581Z,97366.91
2022-11-01T09:01:55.976Z,97367.75
2022-11-01T09:06:49.363Z,97378.03
2022-11-01T09:11:42.678Z,97379.34
2022-11-01T09:16:37.369Z,97388.81
2022-11-01T09:21:32.013Z,97380.31
2022-11-01T09:26:27.103Z,97389.88
2022-11-01T09:31:21.708Z,97383.19
2022-11-01T09:36:17.055Z,97381.63
2022-11-01T09:41:25.507Z,97386.53
2022-11-01T09:46:26.304Z,97383.28
2022-11-01T09:51:25.374Z,97390.22
2022-11-01T09:56:30.555Z,97394.06
2022-11-01T10:01:54.591Z,97388.06
2022-11-01T10:07:00.670Z,97393.69
2022-11-01T10:12:16.350Z,97386.00
2022-11-01T10:17:15.463Z,97386.06
2022-11-01T10:22:19.438Z,97387.63
2022-11-01T10:27:21.764Z,97393.09
2022-11-01T10:32:29.319Z,97409.00
2022-11-01T10:37:32.787Z,97409.25
2022-11-01T10:42:30.721Z,97416.63
2022-11-01T10:47:26.359Z,97435.88
2022-11-01T10:52:29.353Z,97442.69
2022-11-01T10:57:40.137Z,97436.91
2022-11-01T11:02:41.299Z,97446.25
2022-11-01T11:07:36.089Z,97468.91
2022-11-01T11:12:32.107Z,97468.16
2022-11-01T11:17:31.383Z,97467.56
2022-11-01T11:22:26.432Z,97473.44
2022-11-01T11:27:25.271Z,97466.97
2022-11-01T11:32:23.251Z,97473.22
2022-11-01T11:37:23.862Z,97479.72
2022-11-01T11:42:25.750Z,97478.50
2022-11-01T11:47:24.843Z,97474.88
2022-11-01T11:52:26.754Z,97475.31
2022-11-01T11:57:26.927Z,97486.88
2022-11-01T12:02:25.829Z,97472.72
2022-11-01T12:07:29.595Z,97476.34
2022-11-01T12:12:28.994Z,97483.31
2022-11-01T12:17:36.679Z,97471.50
2022-11-01T12:22:35.299Z,97478.56
2022-11-01T12:27:33.994Z,97474.06
2022-11-01T12:32:33.837Z,97465.16
2022-11-01T12:37:35.030Z,97462.38
2022-11-01T12:42:38.333Z,97465.34
2022-11-01T12:47:39.914Z,97465.56
2022-11-01T12:52:42.349Z,97466.19
2022-11-01T12:57:37.092Z,97464.31
2022-11-01T13:02:54.620Z,97463.88
2022-11-01T13:08:04.807Z,97456.41
2022-11-01T13:13:14.970Z,97457.38
2022-11-01T13:18:20.514Z,97453.59
2022-11-01T13:23:26.589Z,97456.66
2022-11-01T13:28:48.769Z,97454.00
2022-11-01T13:33:52.546Z,97449.69
2022-11-01T13:38:58.428Z,97450.56
2022-11-01T13:44:00.689Z,97450.72
2022-11-01T13:50:04.925Z,97454.63
2022-11-01T13:55:16.081Z,97450.28
2022-11-01T14:00:44.243Z,97451.66
2022-11-01T14:05:40.224Z,97439.53
2022-11-01T14:10:50.182Z,97447.34
2022-11-01T14:16:19.488Z,97450.13
2022-11-01T14:21:31.402Z,97462.31
2022-11-01T14:27:25.407Z,97461.50
2022-11-01T14:32:23.674Z,97460.88
2022-11-01T14:37:27.078Z,97473.31
2022-11-01T14:42:27.146Z,97469.59
2022-11-01T14:47:41.091Z,97465.97
2022-11-01T14:52:42.976Z,97466.97
2022-11-01T14:57:36.845Z,97466.41
2022-11-01T15:02:32.839Z,97464.28
2022-11-01T15:07:31.306Z,97457.97
2022-11-01T15:12:28.319Z,97462.66
2022-11-01T15:17:25.570Z,97460.53
2022-11-01T15:22:25.103Z,97454.94
2022-11-01T15:27:24.040Z,97450.44
2022-11-01T15:32:26.670Z,97442.53
2022-11-01T15:37:26.029Z,97442.47
2022-11-01T15:42:24.467Z,97447.66
2022-11-01T15:47:23.571Z,97426.81
2022-11-01T15:52:23.017Z,97429.09
2022-11-01T15:57:23.883Z,97437.88
2022-11-01T16:02:26.018Z,97433.94
2022-11-01T16:07:23.308Z,97444.53
2022-11-01T16:12:21.205Z,97453.75
2022-11-01T16:17:32.909Z,97438.53
2022-11-01T16:22:35.060Z,97460.00
2022-11-01T16:27:29.669Z,97463.72
2022-11-01T16:32:28.900Z,97472.34
2022-11-01T16:37:24.860Z,97460.84
2022-11-01T16:42:21.086Z,97463.00
2022-11-01T16:47:17.446Z,97467.09
2022-11-01T16:52:12.527Z,97468.28
2022-11-01T16:57:06.392Z,97482.19
2022-11-01T17:02:03.844Z,97487.44
2022-11-01T17:06:59.132Z,97493.69
2022-11-01T17:11:54.333Z,97498.59
2022-11-01T17:16:49.663Z,97498.88
2022-11-01T17:21:44.387Z,97517.53
2022-11-01T17:26:37.793Z,97517.97
2022-11-01T17:31:31.111Z,97526.94
2022-11-01T17:36:24.403Z,97534.00
2022-11-01T17:41:21.104Z,97529.81
2022-11-01T17:51:53.347Z,97558.88
2022-11-01T17:56:50.086Z,97567.44
2022-11-01T18:01:51.149Z,97562.13
2022-11-01T18:06:44.604Z,97566.22
2022-11-01T18:17:35.769Z,97561.00
2022-11-01T18:22:45.549Z,97556.19
2022-11-01T18:27:40.209Z,97557.13
2022-11-01T18:33:10.410Z,97555.63
2022-11-01T18:38:39.885Z,97539.47
2022-11-01T18:43:38.276Z,97546.44
2022-11-01T18:48:40.745Z,97557.44
2022-11-01T18:53:36.977Z,97563.34
2022-11-01T18:58:30.336Z,97560.00
2022-11-01T19:03:32.170Z,97567.31
2022-11-01T19:08:27.957Z,97563.41
2022-11-01T19:13:31.680Z,97560.69
2022-11-01T19:18:26.994Z,97558.13
2022-11-01T19:23:36.164Z,97570.44
2022-11-01T19:28:51.749Z,97571.19
2022-11-01T19:34:05.596Z,97559.41
2022-11-01T19:39:00.143Z,97563.59
2022-11-01T19:43:54.943Z,97570.53
2022-11-01T19:48:49.611Z,97568.66
2022-11-01T19:53:47.875Z,97558.53
2022-11-01T19:58:48.903Z,97555.69
2022-11-01T20:03:47.140Z,97558.84
2022-11-01T20:08:50.894Z,97565.06
2022-11-01T20:13:50.565Z,97568.47
2022-11-01T20:18:49.262Z,97564.66
2022-11-01T20:23:46.947Z,97572.31
2022-11-01T20:28:46.065Z,97580.44
2022-11-01T20:33:45.135Z,97583.47
2022-11-01T20:38:39.143Z,97584.44
2022-11-01T20:43:35.327Z,97577.50
2022-11-01T20:48:31.428Z,97582.34
2022-11-01T20:53:28.667Z,97581.00
2022-11-01T20:58:23.284Z,97574.88
2022-11-01T21:03:21.490Z,97596.81
2022-11-01T21:08:31.166Z,97604.59
2022-11-01T21:13:33.724Z,97600.94
2022-11-01T21:19:45.165Z,97603.16
2022-11-01T21:24:52.352Z,97589.28
2022-11-01T21:30:18.466Z,97587.06
2022-11-01T21:35:47.320Z,97596.63
2022-11-01T21:47:33.640Z,97608.69
2022-11-01T21:52:37.284Z,97596.84
2022-11-01T21:57:33.122Z,97600.41
2022-11-01T22:02:26.494Z,97601.25
2022-11-01T22:07:21.148Z,97605.97
2022-11-01T22:12:15.826Z,97612.13
2022-11-01T22:17:09.164Z,97621.59
2022-11-01T22:22:02.393Z,97629.13
2022-11-01T22:26:55.682Z,97625.53
2022-11-01T22:31:50.320Z,97624.81
2022-11-01T22:36:43.613Z,97617.13
2022-11-01T22:41:39.516Z,97611.16
2022-11-01T22:46:45.549Z,97614.03
2022-11-01T22:51:44.943Z,97614.25
2022-11-01T22:56:38.183Z,97617.84
2022-11-01T23:01:34.723Z,97617.41
2022-11-01T23:06:36.064Z,97636.38
2022-11-01T23:11:49.464Z,97643.59
2022-11-01T23:16:45.649Z,97637.56
2022-11-01T23:21:39.146Z,97647.56
2022-11-01T23:26:34.302Z,97649.78
2022-11-01T23:31:30.211Z,97654.94
2022-11-01T23:37:00.948Z,97655.34
2022-11-01T23:41:55.914Z,97667.94
2022-11-01T23:46:49.222Z,97676.03
2022-11-01T23:51:42.783Z,97678.25
2022-11-01T23:56:36.101Z,97677.94
